Detroit, OR (97342)

6:07 PM PST on December 07, 2016 (GMT -0800)
santiam at packsaddle | | Change Station
Active Advisory: Winter Storm Warning

Elev 1125 ft 44.76 °N, 122.34 °W | Updated 34 seconds ago

Clear
Clear
32.9 °F
Feels Like 29 °F
N
4.0
Wind Variable Wind from WSW

Today
High -- | Low -- °F
--% Chance of Precip.
Yesterday
High -- | Low -- °F
Precip. -- in
Pressure 30.17 in
Visibility 10.0 miles
Clouds Clear
Windchill 29 °F
Dew Point 20 °F
Humidity 61%
Rainfall 0.00 in
Snow Depth Not available.
7:32 AM 4:27 PM
First Quarter, 58% visible
METAR KSLE 080156Z AUTO 34007KT 10SM CLR 01/M05 A3017 RMK AO2 SLP217 T00061050
Pressure 30.17 in
Visibility 10.0 miles
Clouds Clear
Windchill 29 °F
Dew Point 20 °F
Humidity 61%
Rainfall 0.00 in
Snow Depth Not available.
7:32 AM 4:27 PM
First Quarter, 58% visible
METAR KSLE 080156Z AUTO 34007KT 10SM CLR 01/M05 A3017 RMK AO2 SLP217 T00061050

10-Day Weather Forecast

Almanac

Astronomy

Dec. 07, 2016 Rise Set
Actual Time
Civil Twilight
Nautical Twilight
Astronomical Twilight
Moon
Length of Visible Light
Length of Day
Tomorrow will be .
, % of the Moon is Illuminated

Today's Extremes

State Highs State Lows

Community

WunderPhotos

Upload Photos

1,956,259 photos uploaded!

WunderBlog® & News

Nearby

Air Quality

  Air Quality AQ Index Pollutant
Not available.

Snow Depth

Station Depth Elevation

Earthquake Activity

City Distance Mag. Time & Date
Minimum magnitude displayed is 2.5.

Coastal Water Temperatures

Place Temperature

Stations

Nearby Weather Stations

Station Location Temp. Windchill Dew Point Humidity Wind Precip. Elev Updated Type
                   

Watches & Warnings

Winter Storm Warning
Issued: 2:00 PM PST Dec. 7, 2016 – National Weather Service

... Winter Storm Warning in effect from 7 am Thursday to 4 am PST
Friday for the north Oregon Cascades for the north Oregon
Cascades...

The National Weather Service in Portland has issued a Winter
Storm Warning... which is in effect from 7 am Thursday to 4 am PST
Friday.

* Timing... a mix of snow... sleet... and freezing rain beginning in
the south around sunrise and spreading north through the
morning... turning to mostly rain or snow later Thursday night
and Friday.

* Snow accumulations... 5 to 10 inches.

* Ice accumulations... local ice accumulations of one tenth of an
inch.

* Snow levels... snow levels will rise to around 4500 feet late
Thursday and Friday night.

* Impacts... travel will be very difficult as roads become snow
covered and icy.

Precautionary/preparedness actions...

A Winter Storm Warning means significant amounts of snow, sleet,
and ice are expected or occurring. Strong winds are also possible.
This will make travel very hazardous or impossible.